createdAt,value
2022-12-24T00:01:36.323Z,5.72
2022-12-24T00:04:05.304Z,4.20
2022-12-24T00:06:33.199Z,5.57
2022-12-24T00:09:01.026Z,6.93
2022-12-24T00:11:29.098Z,5.60
2022-12-24T00:13:56.773Z,4.30
2022-12-24T00:16:24.727Z,4.95
2022-12-24T00:18:54.610Z,4.75
2022-12-24T00:21:22.584Z,7.07
2022-12-24T00:23:49.936Z,6.00
2022-12-24T00:26:17.699Z,5.10
2022-12-24T00:28:45.605Z,6.13
2022-12-24T00:31:16.723Z,5.93
2022-12-24T00:33:46.984Z,6.22
2022-12-24T00:36:14.913Z,5.03
2022-12-24T00:38:42.822Z,4.95
2022-12-24T00:41:29.883Z,4.93
2022-12-24T00:44:02.510Z,5.15
2022-12-24T00:46:31.848Z,6.07
2022-12-24T00:49:00.035Z,2.88
2022-12-24T00:51:28.086Z,7.90
2022-12-24T00:53:55.593Z,5.55
2022-12-24T00:56:23.544Z,5.95
2022-12-24T00:58:51.483Z,5.93
2022-12-24T01:01:19.933Z,3.70
2022-12-24T01:03:50.314Z,5.85
2022-12-24T01:06:21.218Z,5.72
2022-12-24T01:08:52.094Z,6.32
2022-12-24T01:11:19.755Z,5.68
2022-12-24T01:13:47.709Z,4.43
2022-12-24T01:16:20.734Z,5.55
2022-12-24T01:18:48.711Z,5.30
2022-12-24T01:21:16.655Z,5.47
2022-12-24T01:23:44.591Z,4.43
2022-12-24T01:26:12.883Z,5.47
2022-12-24T01:28:43.302Z,6.43
2022-12-24T01:31:22.793Z,7.10
2022-12-24T01:33:50.738Z,6.22
2022-12-24T01:36:19.609Z,5.65
2022-12-24T01:38:47.448Z,5.03
2022-12-24T01:41:40.377Z,4.90
2022-12-24T01:44:20.903Z,5.07
2022-12-24T01:46:51.851Z,5.07
2022-12-24T01:49:20.177Z,5.78
2022-12-24T01:51:54.666Z,5.70
2022-12-24T01:54:31.516Z,5.95
2022-12-24T01:57:13.907Z,5.00
2022-12-24T01:59:46.502Z,5.88
2022-12-24T02:02:15.879Z,5.10
2022-12-24T02:04:53.924Z,4.68
2022-12-24T02:07:21.977Z,3.70
2022-12-24T02:09:53.922Z,6.38
2022-12-24T02:12:21.786Z,3.58
2022-12-24T02:14:49.343Z,4.78
2022-12-24T02:17:56.947Z,4.45
2022-12-24T02:20:59.864Z,6.93
2022-12-24T02:23:33.990Z,4.50
2022-12-24T02:26:25.267Z,7.30
2022-12-24T02:28:55.631Z,4.13
2022-12-24T02:31:43.716Z,4.28
2022-12-24T02:34:28.435Z,5.55
2022-12-24T02:37:00.292Z,4.75
2022-12-24T02:39:38.371Z,4.45
2022-12-24T02:42:08.087Z,5.35
2022-12-24T02:44:40.136Z,5.10
2022-12-24T02:47:10.025Z,5.63
2022-12-24T02:49:38.737Z,6.30
2022-12-24T02:52:06.750Z,11.27
2022-12-24T02:54:34.562Z,6.43
2022-12-24T02:57:28.336Z,6.05
2022-12-24T03:00:11.241Z,5.63
2022-12-24T03:02:39.315Z,6.85
2022-12-24T03:05:34.977Z,4.80
2022-12-24T03:08:17.767Z,6.10
2022-12-24T03:11:09.338Z,4.90
2022-12-24T03:13:37.762Z,4.20
2022-12-24T03:16:09.875Z,5.70
2022-12-24T03:18:40.799Z,4.45
2022-12-24T03:21:16.577Z,4.43
2022-12-24T03:23:44.757Z,5.38
2022-12-24T03:26:13.738Z,5.53
2022-12-24T03:28:41.905Z,5.80
2022-12-24T03:31:11.295Z,5.78
2022-12-24T03:33:40.047Z,6.57
2022-12-24T03:36:08.536Z,6.63
2022-12-24T03:38:36.408Z,6.82
2022-12-24T03:41:04.319Z,4.90
2022-12-24T03:43:32.124Z,6.85
2022-12-24T03:46:00.120Z,5.95
2022-12-24T03:48:32.745Z,5.38
2022-12-24T03:51:00.986Z,8.20
2022-12-24T03:53:28.741Z,6.15
2022-12-24T03:55:56.261Z,4.68
2022-12-24T03:58:26.207Z,6.00
2022-12-24T04:00:54.509Z,4.55
2022-12-24T04:03:22.423Z,5.55
2022-12-24T04:06:07.897Z,6.50
2022-12-24T04:08:36.161Z,5.10
2022-12-24T04:11:09.691Z,5.38
2022-12-24T04:13:38.143Z,4.95
2022-12-24T04:16:12.737Z,4.07
2022-12-24T04:18:40.865Z,5.50
2022-12-24T04:21:10.045Z,6.00
2022-12-24T04:23:39.790Z,6.82
2022-12-24T04:26:09.911Z,6.38
2022-12-24T04:28:38.617Z,6.53
2022-12-24T04:31:11.035Z,5.05
2022-12-24T04:33:39.443Z,6.10
2022-12-24T04:36:07.817Z,6.70
2022-12-24T04:38:36.603Z,5.18
2022-12-24T04:41:07.221Z,5.95
2022-12-24T04:43:35.472Z,6.03
2022-12-24T04:46:12.045Z,6.25
2022-12-24T04:48:39.842Z,4.30
2022-12-24T04:51:09.883Z,4.07
2022-12-24T04:53:38.687Z,4.35
2022-12-24T04:56:14.298Z,5.82
2022-12-24T04:58:42.369Z,6.65
2022-12-24T05:01:16.684Z,5.85
2022-12-24T05:03:44.356Z,3.72
2022-12-24T05:06:15.868Z,4.45
2022-12-24T05:08:43.775Z,4.75
2022-12-24T05:11:14.410Z,1.85
2022-12-24T05:13:48.120Z,5.43
2022-12-24T05:16:18.255Z,4.13
2022-12-24T05:18:45.924Z,6.22
2022-12-24T05:21:22.172Z,5.88
2022-12-24T05:24:08.644Z,4.20
2022-12-24T05:26:44.146Z,4.97
2022-12-24T05:29:15.447Z,5.20
2022-12-24T05:31:45.402Z,3.38
2022-12-24T05:34:16.830Z,5.47
2022-12-24T05:36:44.710Z,4.82
2022-12-24T05:39:16.946Z,4.32
2022-12-24T05:41:45.408Z,4.32
2022-12-24T05:44:13.377Z,4.85
2022-12-24T05:46:41.317Z,5.00
2022-12-24T05:49:09.227Z,3.30
2022-12-24T05:51:37.903Z,3.63
2022-12-24T05:54:05.808Z,4.28
2022-12-24T05:56:34.654Z,3.60
2022-12-24T05:59:02.602Z,2.92
2022-12-24T06:01:31.101Z,4.75
2022-12-24T06:03:59.519Z,4.45
2022-12-24T06:06:28.316Z,5.13
2022-12-24T06:08:56.886Z,2.92
2022-12-24T06:11:26.873Z,4.00
2022-12-24T06:13:55.064Z,5.47
2022-12-24T06:16:23.841Z,2.70
2022-12-24T06:18:53.257Z,4.28
2022-12-24T06:21:21.113Z,4.80
2022-12-24T06:23:49.198Z,5.68
2022-12-24T06:26:20.510Z,4.47
2022-12-24T06:28:49.204Z,4.18
2022-12-24T06:31:20.551Z,3.15
2022-12-24T06:33:48.856Z,4.28
2022-12-24T06:36:19.685Z,4.47
2022-12-24T06:38:48.248Z,4.13
2022-12-24T06:41:17.165Z,4.72
2022-12-24T06:43:50.463Z,4.75
2022-12-24T06:46:19.383Z,3.83
2022-12-24T06:48:47.689Z,4.68
2022-12-24T06:51:17.222Z,2.25
2022-12-24T06:53:45.764Z,4.72
2022-12-24T06:56:14.527Z,5.03
2022-12-24T06:58:44.618Z,5.93
2022-12-24T07:01:15.503Z,5.25
2022-12-24T07:03:44.311Z,4.50
2022-12-24T07:06:30.939Z,4.07
2022-12-24T07:08:58.818Z,5.72
2022-12-24T07:11:26.875Z,3.55
2022-12-24T07:13:54.564Z,7.88
2022-12-24T07:16:26.882Z,5.63
2022-12-24T07:18:54.826Z,6.07
2022-12-24T07:21:23.229Z,5.35
2022-12-24T07:23:52.922Z,5.47
2022-12-24T07:26:20.663Z,4.22
2022-12-24T07:28:48.544Z,6.03
2022-12-24T07:31:16.610Z,4.78
2022-12-24T07:33:45.641Z,5.75
2022-12-24T07:36:20.846Z,4.88
2022-12-24T07:38:49.451Z,4.45
2022-12-24T07:41:17.702Z,5.10
2022-12-24T07:43:45.634Z,5.28
2022-12-24T07:46:13.565Z,4.85
2022-12-24T07:48:41.363Z,5.72
2022-12-24T07:51:09.361Z,5.78
2022-12-24T07:53:37.104Z,4.40
2022-12-24T07:56:12.866Z,4.45
2022-12-24T07:58:41.487Z,5.63
2022-12-24T08:01:10.983Z,5.38
2022-12-24T08:03:38.935Z,5.75
2022-12-24T08:06:06.816Z,5.57
2022-12-24T08:08:34.642Z,4.13
2022-12-24T08:11:04.515Z,4.07
2022-12-24T08:13:33.255Z,4.47
2022-12-24T08:16:01.526Z,4.85
2022-12-24T08:18:29.373Z,5.95
2022-12-24T08:20:57.756Z,3.95
2022-12-24T08:23:25.460Z,4.47
2022-12-24T08:25:53.198Z,4.90
2022-12-24T08:28:21.365Z,4.18
2022-12-24T08:30:50.819Z,5.15
2022-12-24T08:33:19.156Z,4.55
2022-12-24T08:35:52.110Z,5.63
2022-12-24T08:38:20.176Z,5.38
2022-12-24T08:40:50.291Z,5.38
2022-12-24T08:43:18.594Z,6.63
2022-12-24T08:45:47.391Z,6.07
2022-12-24T08:48:15.239Z,4.72
2022-12-24T08:50:43.276Z,5.53
2022-12-24T08:53:11.980Z,4.47
2022-12-24T08:55:41.483Z,4.15
2022-12-24T08:58:09.243Z,5.22
2022-12-24T09:00:37.121Z,4.88
2022-12-24T09:03:05.176Z,4.57
2022-12-24T09:05:32.779Z,5.45
2022-12-24T09:08:00.607Z,5.13
2022-12-24T09:10:30.214Z,5.40
2022-12-24T09:12:58.167Z,4.35
2022-12-24T09:15:25.893Z,6.00
2022-12-24T09:17:53.613Z,4.05
2022-12-24T09:20:21.706Z,4.70
2022-12-24T09:22:49.369Z,4.93
2022-12-24T09:25:17.042Z,4.20
2022-12-24T09:27:44.746Z,4.95
2022-12-24T09:30:12.960Z,5.38
2022-12-24T09:32:43.941Z,4.88
2022-12-24T09:35:11.393Z,5.78
2022-12-24T09:37:39.256Z,5.53
2022-12-24T09:40:16.637Z,4.72
2022-12-24T09:42:53.669Z,5.20
2022-12-24T09:45:36.020Z,5.30
2022-12-24T09:48:15.938Z,4.88
2022-12-24T09:50:59.300Z,6.28
2022-12-24T09:53:29.703Z,4.68
2022-12-24T09:56:01.807Z,5.63
2022-12-24T09:58:39.383Z,6.80
2022-12-24T10:01:07.507Z,5.68
2022-12-24T10:03:35.022Z,4.05
2022-12-24T10:06:02.829Z,5.35
2022-12-24T10:09:00.647Z,4.97
2022-12-24T10:12:01.609Z,5.22
2022-12-24T10:14:35.077Z,5.70
2022-12-24T10:17:21.199Z,5.10
2022-12-24T10:20:27.776Z,5.32
2022-12-24T10:23:23.240Z,5.20
2022-12-24T10:26:07.185Z,5.03
2022-12-24T10:28:39.005Z,5.13
2022-12-24T10:31:08.716Z,4.20
2022-12-24T10:33:45.190Z,4.75
2022-12-24T10:36:24.958Z,4.45
2022-12-24T10:38:54.767Z,5.70
2022-12-24T10:41:22.672Z,4.47
2022-12-24T10:43:50.581Z,8.00
2022-12-24T10:46:38.353Z,4.85
2022-12-24T10:49:13.884Z,4.43
2022-12-24T10:51:56.055Z,5.45
2022-12-24T10:54:27.967Z,4.15
2022-12-24T10:57:00.837Z,4.40
2022-12-24T10:59:30.553Z,8.73
2022-12-24T11:01:59.772Z,6.05
2022-12-24T11:04:33.369Z,4.70
2022-12-24T11:07:06.627Z,4.88
2022-12-24T11:09:43.412Z,4.43
2022-12-24T11:12:22.023Z,4.13
2022-12-24T11:15:00.980Z,5.18
2022-12-24T11:17:28.931Z,5.25
2022-12-24T11:19:58.218Z,5.30
2022-12-24T11:22:29.559Z,4.55
2022-12-24T11:25:22.390Z,7.35
2022-12-24T11:27:51.796Z,3.30
2022-12-24T11:30:21.659Z,4.82
2022-12-24T11:33:15.628Z,4.30
2022-12-24T11:35:48.311Z,4.57
2022-12-24T11:38:25.477Z,5.45
2022-12-24T11:43:44.601Z,5.35
2022-12-24T11:46:36.084Z,3.40
2022-12-24T11:49:12.083Z,4.72
2022-12-24T11:51:46.839Z,5.97
2022-12-24T11:54:24.253Z,5.25
2022-12-24T11:56:55.760Z,4.78
2022-12-24T11:59:33.133Z,5.65
2022-12-24T12:02:03.501Z,7.47
2022-12-24T12:04:37.041Z,4.97
2022-12-24T12:07:15.735Z,6.55
2022-12-24T12:09:55.717Z,6.35
2022-12-24T12:12:30.056Z,4.50
2022-12-24T12:15:06.282Z,4.78
2022-12-24T12:17:44.256Z,5.05
2022-12-24T12:20:18.932Z,10.65
2022-12-24T12:23:03.867Z,5.07
2022-12-24T12:26:12.548Z,5.72
2022-12-24T12:29:01.077Z,6.47
2022-12-24T12:31:36.559Z,9.85
2022-12-24T12:34:04.299Z,4.45
2022-12-24T12:36:46.748Z,5.45
2022-12-24T12:39:14.401Z,6.25
2022-12-24T12:41:50.471Z,5.65
2022-12-24T12:45:01.475Z,5.97
2022-12-24T12:47:38.744Z,6.47
2022-12-24T12:50:19.100Z,7.57
2022-12-24T12:52:49.579Z,7.15
2022-12-24T12:55:25.257Z,5.72
2022-12-24T12:57:57.639Z,5.78
2022-12-24T13:00:25.792Z,5.30
2022-12-24T13:03:20.976Z,5.10
2022-12-24T13:06:32.675Z,5.82
2022-12-24T13:09:22.970Z,6.50
2022-12-24T13:12:11.605Z,6.32
2022-12-24T13:15:03.256Z,6.70
2022-12-24T13:17:55.306Z,7.07
2022-12-24T13:20:23.261Z,6.90
2022-12-24T13:23:02.300Z,6.32
2022-12-24T13:25:41.920Z,5.38
2022-12-24T13:28:37.231Z,6.13
2022-12-24T13:31:20.191Z,5.68
2022-12-24T13:33:50.267Z,6.43
2022-12-24T13:36:19.146Z,7.20
2022-12-24T13:38:57.300Z,4.25
2022-12-24T13:41:39.378Z,7.10
2022-12-24T13:44:13.102Z,6.00
2022-12-24T13:46:58.538Z,6.82
2022-12-24T13:49:29.155Z,5.70
2022-12-24T13:52:12.407Z,6.85
2022-12-24T13:54:49.227Z,6.13
2022-12-24T13:57:38.685Z,6.03
2022-12-24T14:00:31.520Z,6.97
2022-12-24T14:03:13.975Z,7.45
2022-12-24T14:05:44.461Z,7.55
2022-12-24T14:08:24.473Z,6.65
2022-12-24T14:11:12.207Z,6.45
2022-12-24T14:13:40.010Z,7.55
2022-12-24T14:16:23.974Z,6.57
2022-12-24T14:19:00.615Z,6.10
2022-12-24T14:21:46.977Z,7.18
2022-12-24T14:24:19.455Z,5.82
2022-12-24T14:26:52.392Z,8.00
2022-12-24T14:29:29.497Z,7.00
2022-12-24T14:32:00.106Z,7.25
2022-12-24T14:34:27.885Z,6.05
2022-12-24T14:36:56.597Z,6.93
2022-12-24T14:39:37.282Z,6.75
2022-12-24T14:42:10.489Z,5.32
2022-12-24T14:45:07.362Z,6.65
2022-12-24T14:48:02.831Z,6.38
2022-12-24T14:51:03.231Z,8.25
2022-12-24T14:54:00.785Z,6.32
2022-12-24T14:56:28.631Z,6.22
2022-12-24T14:58:58.321Z,6.00
2022-12-24T15:01:32.437Z,8.60
2022-12-24T15:04:11.455Z,4.82
2022-12-24T15:06:42.734Z,5.72
2022-12-24T15:09:31.592Z,7.07
2022-12-24T15:12:03.374Z,7.13
2022-12-24T15:14:41.353Z,8.73
2022-12-24T15:17:09.358Z,6.75
2022-12-24T15:19:40.485Z,6.22
2022-12-24T15:22:26.211Z,6.85
2022-12-24T15:24:54.345Z,6.13
2022-12-24T15:27:27.661Z,6.15
2022-12-24T15:29:57.585Z,6.72
2022-12-24T15:32:26.715Z,6.53
2022-12-24T15:34:55.986Z,10.52
2022-12-24T15:37:29.711Z,6.30
2022-12-24T15:40:09.956Z,5.60
2022-12-24T15:42:42.451Z,7.00
2022-12-24T15:45:27.254Z,9.32
2022-12-24T15:47:59.205Z,7.00
2022-12-24T15:50:35.781Z,5.60
2022-12-24T15:53:19.416Z,5.97
2022-12-24T15:56:23.378Z,6.63
2022-12-24T15:59:10.964Z,6.78
2022-12-24T16:01:38.643Z,8.32
2022-12-24T16:04:26.951Z,8.02
2022-12-24T16:07:02.920Z,6.30
2022-12-24T16:09:36.798Z,7.88
2022-12-24T16:12:05.019Z,7.53
2022-12-24T16:14:33.464Z,6.15
2022-12-24T16:17:02.293Z,7.18
2022-12-24T16:19:39.685Z,9.57
2022-12-24T16:22:27.117Z,8.63
2022-12-24T16:24:55.789Z,7.68
2022-12-24T16:27:23.989Z,7.65
2022-12-24T16:29:51.389Z,6.72
2022-12-24T16:32:31.536Z,6.57
2022-12-24T16:35:02.365Z,8.15
2022-12-24T16:37:30.363Z,7.47
2022-12-24T16:39:59.164Z,8.02
2022-12-24T16:42:46.487Z,6.25
2022-12-24T16:45:14.609Z,8.98
2022-12-24T16:47:43.167Z,7.10
2022-12-24T16:50:16.231Z,8.57
2022-12-24T16:52:44.265Z,5.60
2022-12-24T16:55:15.357Z,2.53
2022-12-24T16:57:43.696Z,6.40
2022-12-24T17:00:21.405Z,6.88
2022-12-24T17:02:50.231Z,6.45
2022-12-24T17:05:18.076Z,7.93
2022-12-24T17:07:46.351Z,6.43
2022-12-24T17:10:14.540Z,6.20
2022-12-24T17:12:43.128Z,8.25
2022-12-24T17:15:11.283Z,6.28
2022-12-24T17:17:38.974Z,6.95
2022-12-24T17:20:07.476Z,8.10
2022-12-24T17:22:36.883Z,6.80
2022-12-24T17:25:05.811Z,7.63
2022-12-24T17:27:33.761Z,7.90
2022-12-24T17:30:01.299Z,7.97
2022-12-24T17:32:28.855Z,6.75
2022-12-24T17:34:59.934Z,7.97
2022-12-24T17:37:28.291Z,7.10
2022-12-24T17:39:56.041Z,8.85
2022-12-24T17:42:24.777Z,6.80
2022-12-24T17:44:53.004Z,7.20
2022-12-24T17:47:20.941Z,6.93
2022-12-24T17:49:48.225Z,6.15
2022-12-24T17:52:16.199Z,8.25
2022-12-24T17:54:43.852Z,6.72
2022-12-24T17:57:12.544Z,6.05
2022-12-24T17:59:41.209Z,5.50
2022-12-24T18:02:11.893Z,6.50
2022-12-24T18:04:40.941Z,5.43
2022-12-24T18:07:09.283Z,7.10
2022-12-24T18:09:36.816Z,7.78
2022-12-24T18:12:04.510Z,5.60
2022-12-24T18:14:34.665Z,5.78
2022-12-24T18:17:02.145Z,5.15
2022-12-24T18:19:29.658Z,5.30
2022-12-24T18:21:57.543Z,6.50
2022-12-24T18:24:24.985Z,5.13
2022-12-24T18:26:53.020Z,6.25
2022-12-24T18:29:20.485Z,2.75
2022-12-24T18:31:47.917Z,4.38
2022-12-24T18:34:16.318Z,4.22
2022-12-24T18:36:43.715Z,4.07
2022-12-24T18:39:11.136Z,6.65
2022-12-24T18:41:39.301Z,3.80
2022-12-24T18:44:06.927Z,4.28
2022-12-24T18:46:34.585Z,5.32
2022-12-24T18:49:02.313Z,4.95
2022-12-24T18:51:33.272Z,4.95
2022-12-24T18:54:00.735Z,3.90
2022-12-24T18:56:28.193Z,5.82
2022-12-24T18:58:59.048Z,6.82
2022-12-24T19:01:29.182Z,4.65
2022-12-24T19:03:57.625Z,5.32
2022-12-24T19:06:25.225Z,4.85
2022-12-24T19:08:58.468Z,5.00
2022-12-24T19:11:27.812Z,3.75
2022-12-24T19:13:55.242Z,4.70
2022-12-24T19:16:22.724Z,5.18
2022-12-24T19:18:50.442Z,5.35
2022-12-24T19:21:19.418Z,3.28
2022-12-24T19:23:48.496Z,3.83
2022-12-24T19:26:17.257Z,3.13
2022-12-24T19:28:45.457Z,3.72
2022-12-24T19:31:18.581Z,3.67
2022-12-24T19:33:52.424Z,2.60
2022-12-24T19:36:26.217Z,2.80
2022-12-24T19:38:54.268Z,3.95
2022-12-24T19:41:26.321Z,4.43
2022-12-24T19:43:56.696Z,2.25
2022-12-24T19:46:28.734Z,2.60
2022-12-24T19:48:58.986Z,2.05
2022-12-24T19:51:27.777Z,2.15
2022-12-24T19:53:56.467Z,3.10
2022-12-24T19:56:25.632Z,3.47
2022-12-24T19:58:55.749Z,3.63
2022-12-24T20:01:26.141Z,3.97
2022-12-24T20:03:54.301Z,2.92
2022-12-24T20:06:24.989Z,2.58
2022-12-24T20:08:52.856Z,2.58
2022-12-24T20:11:22.351Z,2.92
2022-12-24T20:13:52.160Z,3.25
2022-12-24T20:16:21.273Z,2.78
2022-12-24T20:19:00.807Z,1.42
2022-12-24T20:21:28.236Z,2.58
2022-12-24T20:23:56.220Z,2.88
2022-12-24T20:26:26.603Z,2.63
2022-12-24T20:28:54.646Z,2.90
2022-12-24T20:31:25.962Z,2.85
2022-12-24T20:33:54.281Z,1.42
2022-12-24T20:36:22.939Z,2.58
2022-12-24T20:38:51.184Z,3.10
2022-12-24T20:41:20.873Z,3.35
2022-12-24T20:43:49.300Z,2.50
2022-12-24T20:46:18.732Z,2.60
2022-12-24T20:48:46.941Z,2.40
2022-12-24T20:51:23.291Z,2.10
2022-12-24T20:56:23.472Z,1.95
2022-12-24T20:58:51.639Z,2.97
2022-12-24T21:01:25.092Z,2.33
2022-12-24T21:03:56.858Z,2.80
2022-12-24T21:06:25.104Z,2.33
2022-12-24T21:08:53.738Z,2.03
2022-12-24T21:11:41.507Z,3.40
2022-12-24T21:16:37.615Z,3.38
2022-12-24T21:19:06.941Z,2.78
2022-12-24T21:21:35.348Z,3.30
2022-12-24T21:24:06.029Z,2.97
2022-12-24T21:26:33.846Z,2.45
2022-12-24T21:29:04.373Z,2.50
2022-12-24T21:31:32.438Z,3.40
2022-12-24T21:33:59.903Z,2.75
2022-12-24T21:36:27.944Z,2.53
2022-12-24T21:38:56.663Z,2.88
2022-12-24T21:41:26.032Z,2.72
2022-12-24T21:43:53.580Z,2.50
2022-12-24T21:46:25.286Z,2.40
2022-12-24T21:49:13.602Z,3.10
2022-12-24T21:51:43.568Z,1.77
2022-12-24T21:54:23.559Z,3.03
2022-12-24T21:57:10.824Z,2.03
2022-12-24T21:59:40.750Z,3.08
2022-12-24T22:02:12.285Z,2.80
2022-12-24T22:04:40.271Z,2.58
2022-12-24T22:07:39.255Z,2.92
2022-12-24T22:10:25.737Z,2.45
2022-12-24T22:12:54.147Z,3.10
2022-12-24T22:15:21.880Z,2.97
2022-12-24T22:17:50.873Z,2.20
2022-12-24T22:20:19.222Z,1.85
2022-12-24T22:22:48.884Z,2.63
2022-12-24T22:25:17.149Z,2.30
2022-12-24T22:27:44.875Z,2.78
2022-12-24T22:30:13.148Z,2.47
2022-12-24T22:32:40.599Z,3.28
2022-12-24T22:35:08.312Z,1.88
2022-12-24T22:37:37.211Z,2.92
2022-12-24T22:40:05.184Z,2.70
2022-12-24T22:42:33.226Z,2.83
2022-12-24T22:45:01.304Z,3.38
2022-12-24T22:47:29.611Z,1.83
2022-12-24T22:49:57.035Z,2.45
2022-12-24T22:52:24.964Z,2.53
2022-12-24T22:54:52.366Z,2.65
2022-12-24T22:57:19.704Z,1.63
2022-12-24T22:59:47.601Z,2.42
2022-12-24T23:02:15.388Z,2.65
2022-12-24T23:04:42.981Z,2.63
2022-12-24T23:07:12.252Z,2.67
2022-12-24T23:09:39.925Z,2.67
2022-12-24T23:12:08.206Z,2.25
2022-12-24T23:14:54.205Z,3.20
2022-12-24T23:17:21.668Z,2.63
2022-12-24T23:19:49.418Z,2.22
2022-12-24T23:22:17.094Z,3.13
2022-12-24T23:24:45.693Z,3.55
2022-12-24T23:27:13.210Z,2.53
2022-12-24T23:29:40.693Z,2.35
2022-12-24T23:32:08.275Z,2.58
2022-12-24T23:34:35.967Z,2.65
2022-12-24T23:37:03.380Z,2.67
2022-12-24T23:39:31.203Z,2.28
2022-12-24T23:41:58.431Z,2.63
2022-12-24T23:44:31.933Z,1.58
2022-12-24T23:47:01.539Z,2.72
2022-12-24T23:49:29.157Z,1.08
2022-12-24T23:51:56.478Z,3.17
2022-12-24T23:54:23.875Z,2.00
2022-12-24T23:56:56.290Z,2.53
2022-12-24T23:59:23.784Z,2.70
